Schedule Details


Flight Number: CTN673
Departure: Pula Airport (LDPL) at 16:30
Arrival: Zagreb / Pleso (LDZA) at 17:10
Route: RJK UT742 KOTOR

Weather Information
LDPL 192100Z VRB01KT 4400 MIFG BR NSC 10/10 Q1019 BECMG 2000 BCFG BKN005
LDZA 192100Z 22002KT CAVOK 10/07 Q1017 NOSIG
Schedule Frequency

Route Map